createdAt,value
2019-03-11T00:00:24.462Z,3.77
2019-03-11T00:02:52.806Z,3.74
2019-03-11T00:05:21.072Z,3.72
2019-03-11T00:07:49.320Z,3.73
2019-03-11T00:10:23.193Z,3.76
2019-03-11T00:12:52.606Z,3.73
2019-03-11T00:15:21.098Z,3.74
2019-03-11T00:17:49.355Z,3.74
2019-03-11T00:20:17.741Z,3.79
2019-03-11T00:22:46.030Z,3.79
2019-03-11T00:25:14.287Z,3.82
2019-03-11T00:27:42.700Z,3.80
2019-03-11T00:30:12.495Z,3.83
2019-03-11T00:32:40.778Z,3.85
2019-03-11T00:35:09.112Z,3.93
2019-03-11T00:37:37.551Z,3.98
2019-03-11T00:40:08.714Z,4.03
2019-03-11T00:42:37.021Z,4.06
2019-03-11T00:45:08.810Z,4.05
2019-03-11T00:47:37.114Z,3.79
2019-03-11T00:50:07.707Z,3.65
2019-03-11T00:52:36.089Z,3.51
2019-03-11T00:55:05.715Z,3.47
2019-03-11T00:57:34.034Z,3.44
2019-03-11T01:00:02.295Z,3.39
2019-03-11T01:02:30.593Z,3.42
2019-03-11T01:04:58.825Z,3.46
2019-03-11T01:07:27.742Z,3.53
2019-03-11T01:09:56.076Z,3.56
2019-03-11T01:12:24.357Z,3.59
2019-03-11T01:14:52.727Z,3.63
2019-03-11T01:17:20.981Z,3.61
2019-03-11T01:19:49.214Z,3.65
2019-03-11T01:22:17.805Z,3.62
2019-03-11T01:24:46.079Z,3.57
2019-03-11T01:27:14.378Z,3.57
2019-03-11T01:29:42.639Z,3.57
2019-03-11T01:32:10.882Z,3.61
2019-03-11T01:34:39.230Z,3.51
2019-03-11T01:37:07.525Z,3.49
2019-03-11T01:39:35.771Z,3.45
2019-03-11T01:42:04.041Z,3.37
2019-03-11T01:44:32.319Z,3.35
2019-03-11T01:47:00.609Z,3.29
2019-03-11T01:49:28.940Z,3.20
2019-03-11T01:51:57.181Z,3.16
2019-03-11T01:54:25.570Z,3.14
2019-03-11T01:56:53.798Z,3.07
2019-03-11T01:59:22.139Z,3.06
2019-03-11T02:01:50.405Z,3.07
2019-03-11T02:04:18.651Z,3.06
2019-03-11T02:06:47.064Z,3.05
2019-03-11T02:09:15.350Z,3.01
2019-03-11T02:11:43.594Z,3.01
2019-03-11T02:14:11.864Z,2.99
2019-03-11T02:16:40.228Z,2.94
2019-03-11T02:19:08.498Z,2.97
2019-03-11T02:21:36.766Z,2.96
2019-03-11T02:24:05.101Z,2.98
2019-03-11T02:26:33.355Z,2.98
2019-03-11T02:29:01.693Z,3.00
2019-03-11T02:31:30.079Z,3.02
2019-03-11T02:33:58.336Z,3.04
2019-03-11T02:36:26.685Z,3.06
2019-03-11T02:38:54.933Z,3.09
2019-03-11T02:41:23.190Z,3.12
2019-03-11T02:43:51.531Z,3.17
2019-03-11T02:46:19.781Z,3.17
2019-03-11T02:48:48.150Z,3.17
2019-03-11T02:51:16.442Z,3.17
2019-03-11T02:53:44.743Z,3.19
2019-03-11T02:56:13.963Z,3.22
2019-03-11T02:58:42.272Z,3.25
2019-03-11T03:01:28.644Z,3.28
2019-03-11T03:03:58.596Z,3.33
2019-03-11T03:06:27.903Z,3.38
2019-03-11T03:08:56.222Z,3.40
2019-03-11T03:11:24.501Z,3.43
2019-03-11T03:13:52.943Z,3.45
2019-03-11T03:16:21.224Z,3.43
2019-03-11T03:18:49.997Z,3.39
2019-03-11T03:21:18.297Z,3.41
2019-03-11T03:23:46.572Z,3.33
2019-03-11T03:26:14.874Z,3.18
2019-03-11T03:28:43.150Z,3.11
2019-03-11T03:31:11.417Z,3.05
2019-03-11T03:33:39.798Z,2.98
2019-03-11T03:36:08.082Z,2.98
2019-03-11T03:38:36.341Z,2.97
2019-03-11T03:41:04.627Z,2.97
2019-03-11T03:43:33.004Z,2.94
2019-03-11T03:46:01.292Z,2.90
2019-03-11T03:48:29.726Z,2.90
2019-03-11T03:50:58.027Z,2.89
2019-03-11T03:53:26.275Z,2.90
2019-03-11T03:55:54.561Z,2.97
2019-03-11T03:58:22.851Z,3.01
2019-03-11T04:00:51.135Z,3.03
2019-03-11T04:03:19.412Z,3.04
2019-03-11T04:05:47.701Z,3.04
2019-03-11T04:08:15.979Z,3.03
2019-03-11T04:10:44.222Z,3.02
2019-03-11T04:13:12.479Z,3.03
2019-03-11T04:15:40.996Z,3.09
2019-03-11T04:18:09.878Z,3.15
2019-03-11T04:20:38.124Z,3.21
2019-03-11T04:23:06.386Z,3.24
2019-03-11T04:25:34.908Z,3.25
2019-03-11T04:28:03.180Z,3.23
2019-03-11T04:30:31.590Z,3.17
2019-03-11T04:32:59.870Z,3.13
2019-03-11T04:35:28.114Z,3.04
2019-03-11T04:37:56.415Z,2.93
2019-03-11T04:40:24.689Z,2.90
2019-03-11T04:42:53.538Z,2.87
2019-03-11T04:45:21.857Z,2.84
2019-03-11T04:47:50.146Z,2.82
2019-03-11T04:50:21.828Z,2.78
2019-03-11T04:52:50.056Z,2.76
2019-03-11T04:55:18.311Z,2.75
2019-03-11T04:57:56.271Z,2.75
2019-03-11T05:00:32.675Z,2.77
2019-03-11T05:03:00.939Z,2.74
2019-03-11T05:05:29.216Z,2.74
2019-03-11T05:07:57.489Z,2.70
2019-03-11T05:10:25.804Z,2.65
2019-03-11T05:12:54.144Z,2.50
2019-03-11T05:15:22.438Z,2.41
2019-03-11T05:17:50.745Z,2.38
2019-03-11T05:20:19.082Z,2.35
2019-03-11T05:22:47.531Z,2.38
2019-03-11T05:25:15.961Z,2.43
2019-03-11T05:27:44.222Z,2.42
2019-03-11T05:30:21.929Z,2.49
2019-03-11T05:32:50.262Z,2.50
2019-03-11T05:35:18.557Z,2.48
2019-03-11T05:37:46.811Z,2.40
2019-03-11T05:40:19.174Z,2.46
2019-03-11T05:42:47.405Z,2.45
2019-03-11T05:45:17.959Z,2.46
2019-03-11T05:47:46.403Z,2.46
2019-03-11T05:50:15.763Z,2.46
2019-03-11T05:52:43.992Z,2.49
2019-03-11T05:55:13.060Z,2.50
2019-03-11T05:57:41.319Z,2.52
2019-03-11T06:00:16.232Z,2.56
2019-03-11T06:02:44.515Z,2.57
2019-03-11T06:05:12.793Z,2.61
2019-03-11T06:07:42.611Z,2.65
2019-03-11T06:10:14.958Z,2.65
2019-03-11T06:12:43.369Z,2.64
2019-03-11T06:15:13.704Z,2.58
2019-03-11T06:17:42.092Z,2.57
2019-03-11T06:20:30.414Z,2.56
2019-03-11T06:22:59.818Z,2.54
2019-03-11T06:25:28.141Z,2.45
2019-03-11T06:27:56.382Z,2.46
2019-03-11T06:30:24.841Z,2.40
2019-03-11T06:32:53.079Z,2.35
2019-03-11T06:35:21.471Z,2.27
2019-03-11T06:37:49.809Z,2.21
2019-03-11T06:40:18.231Z,2.12
2019-03-11T06:42:46.633Z,2.05
2019-03-11T06:45:15.280Z,1.98
2019-03-11T06:47:43.609Z,1.95
2019-03-11T06:50:12.916Z,1.99
2019-03-11T06:52:41.244Z,2.01
2019-03-11T06:55:10.683Z,2.03
2019-03-11T06:57:39.088Z,2.00
2019-03-11T07:00:16.239Z,1.96
2019-03-11T07:02:44.967Z,1.90
2019-03-11T07:05:19.881Z,1.90
2019-03-11T07:07:43.595Z,1.93
2019-03-11T07:10:14.228Z,1.96
2019-03-11T07:12:42.519Z,1.98
2019-03-11T07:15:12.340Z,2.04
2019-03-11T07:17:40.675Z,2.03
2019-03-11T07:20:12.142Z,2.12
2019-03-11T07:22:41.339Z,2.19
2019-03-11T07:25:10.155Z,2.22
2019-03-11T07:27:38.473Z,2.27
2019-03-11T07:30:15.893Z,2.35
2019-03-11T07:32:44.161Z,2.41
2019-03-11T07:35:12.418Z,2.47
2019-03-11T07:37:40.882Z,2.53
2019-03-11T07:40:14.061Z,2.61
2019-03-11T07:42:42.343Z,2.69
2019-03-11T07:45:13.989Z,2.75
2019-03-11T07:47:42.250Z,2.82
2019-03-11T07:50:13.012Z,2.92
2019-03-11T07:52:41.293Z,3.00
2019-03-11T07:55:13.323Z,3.06
2019-03-11T07:57:41.722Z,3.21
2019-03-11T08:00:12.461Z,3.31
2019-03-11T08:02:40.768Z,3.46
2019-03-11T08:05:09.873Z,3.54
2019-03-11T08:07:38.185Z,3.65
2019-03-11T08:10:12.388Z,3.75
2019-03-11T08:12:40.686Z,3.84
2019-03-11T08:15:16.119Z,3.90
2019-03-11T08:17:44.355Z,3.97
2019-03-11T08:20:13.657Z,3.97
2019-03-11T08:22:41.907Z,4.00
2019-03-11T08:25:11.346Z,4.08
2019-03-11T08:27:39.730Z,4.23
2019-03-11T08:30:24.534Z,4.36
2019-03-11T08:32:52.804Z,4.52
2019-03-11T08:35:21.070Z,4.56
2019-03-11T08:37:49.399Z,4.60
2019-03-11T08:40:18.681Z,4.67
2019-03-11T08:42:46.983Z,4.72
2019-03-11T08:45:16.250Z,4.76
2019-03-11T08:47:44.499Z,4.78
2019-03-11T08:50:15.034Z,4.79
2019-03-11T08:52:43.357Z,4.78
2019-03-11T08:55:11.601Z,4.81
2019-03-11T08:57:41.311Z,4.90
2019-03-11T09:00:12.934Z,4.92
2019-03-11T09:02:41.283Z,4.92
2019-03-11T09:05:11.371Z,4.97
2019-03-11T09:07:39.782Z,5.07
2019-03-11T09:10:14.257Z,5.07
2019-03-11T09:12:42.500Z,5.13
2019-03-11T09:15:19.442Z,5.19
2019-03-11T09:17:47.904Z,5.21
2019-03-11T09:20:19.356Z,5.31
2019-03-11T09:22:47.637Z,5.31
2019-03-11T09:25:19.178Z,5.42
2019-03-11T09:27:47.424Z,5.44
2019-03-11T09:30:17.848Z,5.46
2019-03-11T09:32:46.688Z,5.46
2019-03-11T09:35:14.991Z,5.44
2019-03-11T09:37:43.239Z,5.44
2019-03-11T09:40:16.415Z,5.44
2019-03-11T09:42:44.804Z,5.36
2019-03-11T09:45:15.013Z,5.32
2019-03-11T09:47:43.470Z,5.32
2019-03-11T09:50:13.362Z,5.17
2019-03-11T09:52:41.648Z,5.11
2019-03-11T09:55:15.789Z,5.11
2019-03-11T09:57:44.020Z,5.01
2019-03-11T10:00:22.624Z,5.01
2019-03-11T10:02:52.796Z,4.94
2019-03-11T10:05:20.868Z,4.83
2019-03-11T10:07:49.288Z,4.80
2019-03-11T10:10:23.449Z,4.81
2019-03-11T10:12:51.730Z,4.80
2019-03-11T10:15:20.787Z,4.80
2019-03-11T10:17:49.097Z,4.80
2019-03-11T10:20:18.590Z,4.84
2019-03-11T10:22:46.923Z,4.75
2019-03-11T10:25:16.561Z,4.75
2019-03-11T10:27:44.913Z,4.37
2019-03-11T10:30:23.056Z,4.37
2019-03-11T10:32:51.356Z,4.43
2019-03-11T10:35:31.252Z,4.50
2019-03-11T10:37:50.382Z,4.64
2019-03-11T10:40:24.555Z,4.77
2019-03-11T10:42:53.754Z,4.82
2019-03-11T10:45:31.332Z,4.88
2019-03-11T10:47:52.773Z,4.94
2019-03-11T10:50:21.449Z,5.00
2019-03-11T10:52:49.762Z,4.99
2019-03-11T10:55:19.596Z,5.10
2019-03-11T10:57:48.534Z,5.16
2019-03-11T11:00:30.846Z,5.28
2019-03-11T11:02:59.052Z,5.45
2019-03-11T11:05:27.308Z,5.61
2019-03-11T11:07:55.690Z,5.76
2019-03-11T11:10:23.985Z,5.83
2019-03-11T11:12:52.369Z,5.97
2019-03-11T11:15:25.286Z,6.02
2019-03-11T11:17:53.526Z,6.02
2019-03-11T11:20:22.434Z,6.15
2019-03-11T11:22:50.881Z,6.43
2019-03-11T11:25:20.366Z,6.43
2019-03-11T11:27:48.661Z,6.79
2019-03-11T11:30:22.480Z,6.98
2019-03-11T11:32:50.861Z,7.13
2019-03-11T11:35:19.290Z,7.19
2019-03-11T11:37:47.552Z,7.14
2019-03-11T11:40:23.607Z,7.11
2019-03-11T11:42:52.172Z,7.02
2019-03-11T11:45:21.889Z,7.05
2019-03-11T11:47:50.183Z,7.17
2019-03-11T11:50:20.221Z,7.31
2019-03-11T11:52:48.469Z,7.34
2019-03-11T11:55:17.654Z,7.32
2019-03-11T11:57:46.078Z,7.24
2019-03-11T12:00:26.514Z,7.23
2019-03-11T12:02:54.828Z,7.01
2019-03-11T12:05:23.145Z,6.92
2019-03-11T12:07:51.531Z,6.76
2019-03-11T12:10:27.042Z,6.63
2019-03-11T12:12:55.309Z,6.53
2019-03-11T12:15:23.602Z,6.48
2019-03-11T12:17:51.856Z,6.45
2019-03-11T12:20:30.572Z,6.38
2019-03-11T12:22:58.816Z,6.41
2019-03-11T12:25:27.121Z,6.45
2019-03-11T12:27:58.041Z,6.42
2019-03-11T12:30:32.227Z,6.45
2019-03-11T12:33:00.533Z,6.46
2019-03-11T12:35:28.790Z,6.33
2019-03-11T12:37:57.024Z,6.38
2019-03-11T12:40:25.413Z,6.28
2019-03-11T12:42:53.685Z,6.04
2019-03-11T12:45:22.869Z,6.04
2019-03-11T12:47:51.292Z,6.11
2019-03-11T12:50:27.898Z,6.25
2019-03-11T12:52:56.205Z,6.25
2019-03-11T12:55:24.443Z,6.12
2019-03-11T12:57:52.770Z,5.90
2019-03-11T13:00:22.973Z,5.87
2019-03-11T13:02:51.297Z,5.84
2019-03-11T13:05:19.696Z,5.84
2019-03-11T13:07:47.956Z,5.84
2019-03-11T13:10:20.992Z,5.93
2019-03-11T13:12:49.355Z,5.93
2019-03-11T13:15:18.017Z,6.01
2019-03-11T13:17:46.316Z,6.10
2019-03-11T13:20:17.647Z,6.29
2019-03-11T13:22:47.994Z,6.41
2019-03-11T13:25:16.292Z,6.41
2019-03-11T13:27:44.528Z,6.60
2019-03-11T13:30:14.707Z,6.60
2019-03-11T13:32:42.961Z,6.64
2019-03-11T13:35:12.127Z,6.77
2019-03-11T13:37:40.837Z,7.08
2019-03-11T13:40:15.980Z,7.08
2019-03-11T13:42:44.264Z,7.06
2019-03-11T13:45:18.806Z,6.98
2019-03-11T13:47:47.133Z,6.92
2019-03-11T13:50:16.529Z,6.82
2019-03-11T13:52:44.785Z,6.72
2019-03-11T13:55:16.525Z,6.71
2019-03-11T13:57:44.915Z,6.54
2019-03-11T14:00:20.960Z,6.55
2019-03-11T14:02:49.404Z,6.48
2019-03-11T14:05:17.657Z,6.38
2019-03-11T14:07:45.902Z,6.32
2019-03-11T14:10:15.044Z,6.23
2019-03-11T14:12:43.291Z,5.85
2019-03-11T14:15:17.150Z,5.85
2019-03-11T14:17:45.425Z,5.78
2019-03-11T14:20:14.396Z,5.78
2019-03-11T14:22:42.701Z,5.90
2019-03-11T14:25:11.897Z,6.13
2019-03-11T14:27:40.227Z,6.13
2019-03-11T14:30:22.505Z,6.22
2019-03-11T14:32:50.757Z,6.22
2019-03-11T14:35:19.311Z,6.04
2019-03-11T14:37:47.691Z,6.04
2019-03-11T14:40:20.190Z,6.00
2019-03-11T14:42:48.471Z,6.03
2019-03-11T14:45:18.484Z,5.93
2019-03-11T14:47:46.753Z,5.92
2019-03-11T14:50:15.108Z,5.89
2019-03-11T14:52:43.391Z,5.89
2019-03-11T14:55:12.955Z,5.86
2019-03-11T14:57:41.279Z,5.86
2019-03-11T15:00:12.944Z,5.80
2019-03-11T15:02:41.243Z,5.80
2019-03-11T15:05:10.065Z,5.86
2019-03-11T15:10:25.882Z,5.87
2019-03-11T15:12:54.239Z,5.90
2019-03-11T15:15:23.958Z,5.90
2019-03-11T15:17:52.244Z,5.84
2019-03-11T15:20:20.571Z,5.83
2019-03-11T15:22:48.815Z,5.84
2019-03-11T15:25:17.318Z,5.85
2019-03-11T15:27:45.628Z,5.83
2019-03-11T15:30:19.694Z,5.83
2019-03-11T15:32:48.014Z,5.89
2019-03-11T15:35:16.341Z,5.88
2019-03-11T15:37:44.592Z,5.93
2019-03-11T15:40:15.176Z,5.96
2019-03-11T15:42:43.477Z,6.01
2019-03-11T15:45:13.914Z,6.01
2019-03-11T15:47:42.230Z,5.97
2019-03-11T15:50:13.412Z,5.97
2019-03-11T15:52:41.645Z,5.97
2019-03-11T15:55:12.767Z,6.04
2019-03-11T15:57:41.086Z,6.04
2019-03-11T16:00:15.469Z,6.04
2019-03-11T16:02:43.702Z,6.09
2019-03-11T16:05:11.974Z,6.12
2019-03-11T16:07:40.224Z,6.12
2019-03-11T16:10:16.733Z,6.16
2019-03-11T16:12:41.706Z,6.16
2019-03-11T16:15:11.383Z,6.20
2019-03-11T16:17:39.682Z,6.20
2019-03-11T16:20:20.224Z,6.19
2019-03-11T16:22:48.567Z,6.17
2019-03-11T16:25:16.808Z,6.22
2019-03-11T16:27:45.166Z,6.18
2019-03-11T16:30:21.496Z,6.21
2019-03-11T16:32:59.342Z,6.21
2019-03-11T16:35:21.153Z,6.19
2019-03-11T16:37:49.491Z,6.23
2019-03-11T16:40:17.749Z,6.23
2019-03-11T16:42:46.061Z,6.12
2019-03-11T16:45:17.149Z,6.11
2019-03-11T16:47:45.969Z,6.17
2019-03-11T16:50:19.509Z,6.11
2019-03-11T16:52:47.787Z,6.12
2019-03-11T16:55:19.657Z,6.12
2019-03-11T16:57:47.993Z,6.15
2019-03-11T17:00:19.452Z,6.15
2019-03-11T17:02:47.904Z,6.17
2019-03-11T17:05:16.142Z,6.09
2019-03-11T17:07:44.419Z,6.09
2019-03-11T17:10:15.037Z,6.11
2019-03-11T17:12:43.299Z,6.17
2019-03-11T17:15:11.721Z,6.17
2019-03-11T17:17:39.982Z,6.06
2019-03-11T17:20:14.017Z,6.06
2019-03-11T17:22:42.397Z,6.02
2019-03-11T17:25:12.411Z,6.02
2019-03-11T17:27:40.661Z,6.03
2019-03-11T17:30:22.734Z,5.92
2019-03-11T17:32:51.034Z,5.98
2019-03-11T17:35:19.291Z,5.96
2019-03-11T17:37:47.744Z,5.98
2019-03-11T17:40:20.902Z,5.98
2019-03-11T17:42:49.130Z,6.00
2019-03-11T17:45:17.478Z,5.98
2019-03-11T17:47:45.722Z,5.93
2019-03-11T17:50:16.846Z,5.92
2019-03-11T17:52:45.099Z,5.88
2019-03-11T17:55:14.264Z,5.88
2019-03-11T17:57:42.680Z,5.90
2019-03-11T18:00:18.497Z,5.86
2019-03-11T18:02:46.877Z,5.86
2019-03-11T18:05:15.568Z,5.86
2019-03-11T18:07:44.694Z,5.84
2019-03-11T18:10:13.091Z,5.88
2019-03-11T18:12:41.332Z,5.88
2019-03-11T18:15:12.917Z,5.86
2019-03-11T18:17:41.201Z,5.78
2019-03-11T18:20:16.666Z,5.75
2019-03-11T18:22:44.994Z,5.75
2019-03-11T18:25:14.963Z,5.78
2019-03-11T18:27:43.702Z,5.68
2019-03-11T18:30:15.283Z,5.68
2019-03-11T18:32:43.565Z,5.60
2019-03-11T18:35:11.917Z,5.60
2019-03-11T18:37:40.167Z,5.56
2019-03-11T18:40:11.322Z,5.56
2019-03-11T18:42:39.934Z,5.52
2019-03-11T18:45:10.238Z,5.52
2019-03-11T18:47:38.661Z,5.43
2019-03-11T18:50:10.070Z,5.37
2019-03-11T18:52:38.325Z,5.37
2019-03-11T18:55:07.750Z,5.31
2019-03-11T18:57:36.042Z,5.28
2019-03-11T19:00:06.916Z,5.18
2019-03-11T19:02:35.222Z,5.13
2019-03-11T19:05:04.035Z,5.13
2019-03-11T19:07:32.325Z,5.12
2019-03-11T19:10:00.672Z,5.12
2019-03-11T19:12:31.175Z,5.12
2019-03-11T19:14:59.440Z,5.12
2019-03-11T19:17:27.822Z,5.15
2019-03-11T19:19:56.106Z,5.15
2019-03-11T19:22:24.579Z,5.09
2019-03-11T19:24:52.914Z,5.04
2019-03-11T19:27:21.147Z,5.10
2019-03-11T19:29:49.513Z,5.10
2019-03-11T19:32:17.737Z,5.08
2019-03-11T19:34:46.117Z,5.05
2019-03-11T19:37:14.450Z,5.05
2019-03-11T19:39:42.815Z,5.07
2019-03-11T19:42:11.101Z,5.03
2019-03-11T19:44:39.446Z,5.03
2019-03-11T19:47:07.691Z,5.02
2019-03-11T19:49:36.057Z,5.03
2019-03-11T19:52:04.304Z,4.97
2019-03-11T19:54:32.594Z,4.97
2019-03-11T19:57:00.917Z,5.00
2019-03-11T19:59:29.276Z,5.00
2019-03-11T20:01:57.563Z,5.02
2019-03-11T20:04:26.062Z,5.02
2019-03-11T20:06:54.406Z,5.02
2019-03-11T20:09:22.674Z,4.97
2019-03-11T20:11:53.904Z,4.97
2019-03-11T20:14:21.169Z,4.92
2019-03-11T20:16:49.542Z,4.92
2019-03-11T20:19:17.944Z,4.95
2019-03-11T20:21:46.286Z,4.94
2019-03-11T20:24:14.543Z,4.86
2019-03-11T20:26:42.954Z,4.86
2019-03-11T20:29:11.473Z,4.88
2019-03-11T20:31:39.836Z,4.80
2019-03-11T20:34:08.084Z,4.86
2019-03-11T20:36:36.502Z,4.83
2019-03-11T20:39:05.449Z,4.83
2019-03-11T20:41:33.761Z,4.83
2019-03-11T20:44:04.750Z,4.90
2019-03-11T20:46:32.095Z,4.91
2019-03-11T20:49:00.760Z,4.91
2019-03-11T20:51:29.026Z,4.91
2019-03-11T20:53:57.367Z,4.96
2019-03-11T20:56:25.742Z,5.01
2019-03-11T20:58:53.987Z,5.01
2019-03-11T21:01:22.421Z,5.00
2019-03-11T21:03:50.722Z,5.04
2019-03-11T21:06:19.138Z,5.05
2019-03-11T21:08:47.366Z,5.05
2019-03-11T21:11:15.743Z,5.07
2019-03-11T21:13:44.048Z,5.07
2019-03-11T21:16:12.662Z,5.09
2019-03-11T21:18:40.925Z,5.14
2019-03-11T21:21:09.186Z,5.14
2019-03-11T21:23:37.675Z,5.13
2019-03-11T21:26:06.010Z,5.07
2019-03-11T21:28:34.481Z,5.07
2019-03-11T21:31:02.845Z,5.09
2019-03-11T21:33:31.361Z,5.06
2019-03-11T21:35:59.650Z,5.01
2019-03-11T21:38:27.938Z,5.01
2019-03-11T21:40:56.394Z,4.95
2019-03-11T21:43:25.130Z,4.95
2019-03-11T21:45:53.419Z,4.87
2019-03-11T21:48:21.697Z,4.87
2019-03-11T21:50:50.168Z,4.86
2019-03-11T21:53:18.486Z,4.83
2019-03-11T21:55:46.821Z,4.83
2019-03-11T21:58:15.178Z,4.76
2019-03-11T22:00:43.600Z,4.69
2019-03-11T22:03:11.932Z,4.63
2019-03-11T22:05:40.157Z,4.52
2019-03-11T22:08:08.567Z,4.52
2019-03-11T22:10:36.840Z,4.50
2019-03-11T22:13:05.084Z,4.44
2019-03-11T22:15:33.360Z,4.44
2019-03-11T22:18:01.671Z,4.42
2019-03-11T22:20:29.940Z,4.43
2019-03-11T22:22:58.197Z,4.41
2019-03-11T22:25:26.607Z,4.43
2019-03-11T22:27:54.879Z,4.43
2019-03-11T22:30:26.207Z,4.43
2019-03-11T22:32:54.515Z,4.41
2019-03-11T22:35:22.755Z,4.41
2019-03-11T22:37:53.127Z,4.44
2019-03-11T22:40:23.417Z,4.43
2019-03-11T22:42:53.595Z,4.48
2019-03-11T22:45:23.540Z,4.48
2019-03-11T22:47:53.524Z,4.51
2019-03-11T22:50:23.770Z,4.52
2019-03-11T22:52:53.446Z,4.53
2019-03-11T22:55:21.766Z,4.55
2019-03-11T22:57:50.304Z,4.54
2019-03-11T23:00:41.528Z,4.52
2019-03-11T23:03:10.233Z,4.51
2019-03-11T23:05:38.491Z,4.48
2019-03-11T23:08:07.061Z,4.44
2019-03-11T23:10:35.358Z,4.39
2019-03-11T23:13:03.623Z,4.36
2019-03-11T23:15:32.022Z,4.31
2019-03-11T23:18:00.270Z,4.28
2019-03-11T23:20:28.464Z,4.23
2019-03-11T23:22:56.785Z,4.19
2019-03-11T23:25:25.052Z,4.18
2019-03-11T23:27:53.380Z,4.08
2019-03-11T23:30:21.725Z,4.11
2019-03-11T23:32:50.056Z,4.05
2019-03-11T23:35:18.386Z,4.02
2019-03-11T23:37:46.668Z,4.03
2019-03-11T23:40:14.957Z,4.01
2019-03-11T23:42:43.301Z,3.99
2019-03-11T23:45:12.161Z,3.95
2019-03-11T23:47:40.426Z,3.94
2019-03-11T23:50:11.166Z,3.93
2019-03-11T23:52:39.456Z,3.90
2019-03-11T23:55:09.981Z,3.87
2019-03-11T23:57:38.886Z,3.87
